Terminal Aerodrome Forecast
Issued by NWS

Home | Current Version | Previous Version | Text Only | Print | Product List | Glossary On
Versions: 1 2 3 4 5 6 7 8 9 10 11 12 13 14 15 16 17 18
000
FTUS43 KJKL 290500
TAFSME
TAF
KSME 290539Z 2906/3006 34005KT P6SM BKN050
     FM291000 00000KT 5SM BR SCT007 OVC015
     FM291300 31005KT 5SM BR FEW007 BKN025
     FM291400 33007KT P6SM FEW025 SCT050=

USA.gov is the U.S. government's official web portal to all federal, state and local government web resources and services.